Terminal Aerodrome Forecast
Issued by NWS

Home | Current Version | Previous Version | Text Only | Print | Product List | Glossary On
Versions: 1 2 3 4 5 6 7 8 9 10 11 12 13 14 15 16 17 18 19
000
FTUS44 KLIX 282324
TAFMSY
TAF
KMSY 282324Z 2900/2924 16007KT P6SM SCT019 SCT027 BKN250
      TEMPO 2900/2902 BKN027
     FM290500 16008KT P6SM BKN020
     FM290700 17007KT P6SM BKN008
     FM291100 15006KT 5SM BR BKN008
     FM291400 15009KT P6SM BKN015
     FM291500 16011KT P6SM BKN040=

USA.gov is the U.S. government's official web portal to all federal, state and local government web resources and services.